Time;durP1;ratioP1;P1;durP2;ratioP2;P2;SDS_P1;SDS_P2;PMS_P1;PMS_P2;Temp;Humidity;BMP_temperature;BMP_pressure;BME280_temperature;BME280_humidity;BME280_pressure;Samples;Min_cycle;Max_cycle;Signal;HPM_P1;HPM_P2
2021/12/14 00:00:39;;;;;;;57.10;21.75;;;-1.80;99.90;;;;;;4805662;29;20426;-88
2021/12/14 00:03:08;;;;;;;53.23;20.10;;;-1.80;99.90;;;;;;4805876;29;20445;-87
2021/12/14 00:05:37;;;;;;;49.00;19.27;;;-1.80;99.90;;;;;;4805959;29;20497;-87
2021/12/14 00:08:08;;;;;;;53.87;19.83;;;-1.80;99.90;;;;;;4821133;29;20516;-87
2021/12/14 00:13:14;;;;;;;65.35;19.10;;;-1.80;99.90;;;;;;4805816;29;20484;-88
2021/12/14 00:15:42;;;;;;;45.63;20.30;;;-1.80;99.90;;;;;;4805804;29;20418;-88
2021/12/14 00:18:13;;;;;;;53.60;18.58;;;-1.80;99.90;;;;;;4804950;29;20482;-88
2021/12/14 00:20:51;;;;;;;68.07;22.20;;;-1.80;99.90;;;;;;4820598;29;20457;-88
2021/12/14 00:26:09;;;;;;;62.67;20.67;;;-1.80;99.90;;;;;;4805435;29;20504;-88
2021/12/14 00:28:37;;;;;;;58.17;18.27;;;-1.80;99.90;;;;;;4805630;29;20418;-87
2021/12/14 00:31:09;;;;;;;61.63;21.67;;;-1.80;99.90;;;;;;4820687;29;20482;-87
2021/12/14 00:33:39;;;;;;;56.15;19.83;;;-1.80;99.90;;;;;;4805448;29;20474;-87
2021/12/14 00:36:10;;;;;;;49.67;19.10;;;-1.80;99.90;;;;;;4805396;29;20409;-88
2021/12/14 00:38:40;;;;;;;49.58;17.80;;;-1.80;99.90;;;;;;4805310;29;20433;-88
2021/12/14 00:41:14;;;;;;;51.93;17.73;;;-1.80;99.90;;;;;;4805103;29;20398;-88
2021/12/14 00:43:44;;;;;;;58.88;20.08;;;-1.80;99.90;;;;;;4805595;29;20402;-88
2021/12/14 00:46:13;;;;;;;82.13;20.75;;;-1.80;99.90;;;;;;4790390;29;20431;-87
2021/12/14 00:48:42;;;;;;;72.03;20.25;;;-1.80;99.90;;;;;;4805260;29;20417;-88
2021/12/14 00:51:11;;;;;;;61.28;18.35;;;-1.80;99.90;;;;;;4805150;29;20882;-88
2021/12/14 00:53:40;;;;;;;54.03;20.20;;;-1.80;99.90;;;;;;4805070;29;20872;-88
2021/12/14 00:56:12;;;;;;;55.23;19.37;;;-1.80;99.90;;;;;;4804988;29;20432;-88
2021/12/14 00:58:44;;;;;;;53.92;18.30;;;-1.70;99.90;;;;;;4819879;29;20528;-88
2021/12/14 01:01:17;;;;;;;104.78;19.38;;;-1.70;99.90;;;;;;4820055;29;20416;-88
2021/12/14 01:03:49;;;;;;;52.90;18.90;;;-1.70;99.90;;;;;;4804942;29;20482;-88
2021/12/14 01:06:18;;;;;;;147.85;20.73;;;-1.70;99.90;;;;;;4804745;29;20505;-87
2021/12/14 01:08:48;;;;;;;127.28;22.45;;;-1.80;99.90;;;;;;4804459;29;20418;-87
2021/12/14 01:11:32;;;;;;;82.00;20.73;;;-1.80;99.90;;;;;;4819981;29;20418;-88
2021/12/14 01:14:07;;;;;;;92.00;19.02;;;-1.70;99.90;;;;;;4819891;29;20470;-87
2021/12/14 01:16:51;;;;;;;57.93;18.63;;;-1.80;99.90;;;;;;4804767;29;20768;-86
2021/12/14 01:19:26;;;;;;;61.13;21.10;;;-1.80;99.90;;;;;;4804398;29;20430;-88
2021/12/14 01:27:23;;;;;;;65.43;20.35;;;-1.80;99.90;;;;;;4805527;29;20545;-88
2021/12/14 01:29:54;;;;;;;55.17;18.95;;;-1.70;99.90;;;;;;4819370;29;20406;-89
2021/12/14 01:32:27;;;;;;;61.50;17.70;;;-1.70;99.90;;;;;;4804218;29;20826;-88
2021/12/14 01:34:54;;;;;;;60.20;21.75;;;-1.70;99.90;;;;;;4819465;29;20421;-87
2021/12/14 01:37:27;;;;;;;89.75;20.42;;;-1.70;99.90;;;;;;4804155;29;20464;-87
2021/12/14 01:42:31;;;;;;;76.82;20.65;;;-1.70;99.90;;;;;;4828104;29;20426;-88
2021/12/14 01:45:19;;;;;;;69.05;17.52;;;-1.70;99.90;;;;;;4837439;29;20502;-88
2021/12/14 01:47:53;;;;;;;94.07;20.35;;;-1.70;99.90;;;;;;4822389;29;20484;-87
2021/12/14 01:51:00;;;;;;;57.03;19.30;;;-1.70;99.90;;;;;;4784924;30;20430;-88
2021/12/14 01:53:36;;;;;;;85.22;20.45;;;-1.70;99.90;;;;;;4814778;29;20428;-87
2021/12/14 01:56:08;;;;;;;66.53;19.13;;;-1.70;99.90;;;;;;4822404;29;20932;-88
2021/12/14 01:58:47;;;;;;;49.40;18.00;;;-1.70;99.90;;;;;;4822096;29;20432;-86
2021/12/14 02:01:20;;;;;;;68.85;20.25;;;-1.60;99.90;;;;;;4822348;29;20424;-86
2021/12/14 02:04:06;;;;;;;58.53;18.00;;;-1.60;99.90;;;;;;4822181;29;20428;-86
2021/12/14 02:06:34;;;;;;;50.38;17.67;;;-1.70;99.90;;;;;;4822299;29;20428;-87
2021/12/14 02:09:12;;;;;;;59.88;17.45;;;-1.70;99.90;;;;;;4822066;29;20469;-87
2021/12/14 02:11:51;;;;;;;55.33;18.52;;;-1.70;99.90;;;;;;4822141;29;20431;-86
2021/12/14 02:14:20;;;;;;;60.45;19.45;;;-1.70;99.90;;;;;;4822244;29;20427;-87
2021/12/14 02:16:51;;;;;;;58.60;18.17;;;-1.70;99.90;;;;;;4822149;29;20502;-88
2021/12/14 02:19:19;;;;;;;60.60;18.65;;;-1.70;99.90;;;;;;4821718;29;21230;-87
2021/12/14 02:21:49;;;;;;;54.60;19.10;;;-1.70;99.90;;;;;;4821687;29;20419;-87
2021/12/14 02:24:19;;;;;;;54.38;18.17;;;-1.60;99.90;;;;;;4820984;29;20412;-88
2021/12/14 02:26:49;;;;;;;67.82;19.10;;;-1.60;99.90;;;;;;4806975;29;20412;-88
2021/12/14 02:29:30;;;;;;;65.03;21.60;;;-1.60;99.90;;;;;;4806683;29;20405;-88
2021/12/14 02:32:25;;;;;;;73.40;18.00;;;-1.60;99.90;;;;;;4822052;29;20404;-88
2021/12/14 02:35:03;;;;;;;57.70;18.92;;;-1.70;99.90;;;;;;4818452;29;20423;-87
2021/12/14 02:37:46;;;;;;;61.35;21.00;;;-1.70;99.90;;;;;;4802534;29;20405;-88
2021/12/14 02:43:21;;;;;;;58.33;18.90;;;-1.60;99.90;;;;;;4805489;29;21005;-87
2021/12/14 02:45:49;;;;;;;72.88;20.27;;;-1.60;99.90;;;;;;4807286;29;20508;-88
2021/12/14 02:48:18;;;;;;;75.63;21.95;;;-1.60;99.90;;;;;;4806974;29;20406;-87
2021/12/14 02:50:46;;;;;;;67.82;19.98;;;-1.60;99.90;;;;;;4807255;29;20940;-86
2021/12/14 02:53:14;;;;;;;76.03;21.33;;;-1.60;99.90;;;;;;4807068;29;20425;-87
2021/12/14 02:55:42;;;;;;;62.83;20.90;;;-1.70;99.90;;;;;;4792295;29;20917;-88
2021/12/14 02:58:10;;;;;;;94.00;20.52;;;-1.60;99.90;;;;;;4792032;29;20514;-85
2021/12/14 03:00:49;;;;;;;82.65;22.20;;;-1.60;99.90;;;;;;4807023;29;20425;-88
2021/12/14 03:03:19;;;;;;;56.53;21.15;;;-1.60;99.90;;;;;;4791882;29;20414;-88
2021/12/14 03:05:49;;;;;;;59.78;22.40;;;-1.60;99.90;;;;;;4806703;29;20420;-88
2021/12/14 03:08:24;;;;;;;54.92;20.98;;;-1.60;99.90;;;;;;4806831;29;20437;-88
2021/12/14 03:11:09;;;;;;;63.35;21.77;;;-1.60;99.90;;;;;;4795895;29;20979;-86
2021/12/14 03:13:48;;;;;;;67.82;21.08;;;-1.60;99.90;;;;;;4837988;29;20511;-88
2021/12/14 03:16:25;;;;;;;57.70;21.98;;;-1.60;99.90;;;;;;4821626;29;20917;-88
2021/12/14 03:18:55;;;;;;;82.18;25.30;;;-1.60;99.90;;;;;;4791776;29;20425;-87
2021/12/14 03:21:29;;;;;;;58.45;21.63;;;-1.60;99.90;;;;;;4791637;29;20414;-85
2021/12/14 03:24:02;;;;;;;78.15;23.75;;;-1.60;99.90;;;;;;4791830;29;20990;-88
2021/12/14 03:26:32;;;;;;;65.18;22.17;;;-1.60;99.90;;;;;;4821401;29;20414;-88
2021/12/14 03:29:13;;;;;;;74.40;25.00;;;-1.60;99.90;;;;;;4791745;29;20441;-88
2021/12/14 03:31:44;;;;;;;69.72;23.15;;;-1.50;99.90;;;;;;4821634;29;20850;-87
2021/12/14 03:34:30;;;;;;;59.25;23.05;;;-1.60;99.90;;;;;;4793595;29;20417;-87
2021/12/14 03:37:05;;;;;;;78.65;22.95;;;-1.60;99.90;;;;;;4824531;29;20484;-88
2021/12/14 03:39:47;;;;;;;64.47;20.83;;;-1.60;99.90;;;;;;4809503;29;20488;-88
2021/12/14 03:42:24;;;;;;;57.63;22.42;;;-1.60;99.90;;;;;;4821204;29;20424;-88
2021/12/14 03:44:55;;;;;;;79.90;23.95;;;-1.60;99.90;;;;;;4791598;29;20425;-88
2021/12/14 03:47:39;;;;;;;65.20;23.25;;;-1.60;99.90;;;;;;4807969;29;20494;-88
2021/12/14 03:50:12;;;;;;;70.07;23.35;;;-1.60;99.90;;;;;;4791240;29;20957;-88
2021/12/14 03:52:41;;;;;;;81.40;21.38;;;-1.60;99.90;;;;;;4791267;29;20426;-88
2021/12/14 03:55:26;;;;;;;55.63;21.90;;;-1.60;99.90;;;;;;4806122;29;20459;-88
2021/12/14 03:57:55;;;;;;;64.53;23.27;;;-1.60;99.90;;;;;;4791457;29;20422;-86
2021/12/14 04:00:36;;;;;;;66.47;22.90;;;-1.60;99.90;;;;;;4794286;29;20444;-88
2021/12/14 04:03:10;;;;;;;63.42;21.67;;;-1.60;99.90;;;;;;4824248;29;20491;-88
2021/12/14 04:05:51;;;;;;;73.63;21.23;;;-1.60;99.90;;;;;;4823819;29;20423;-86
2021/12/14 04:08:21;;;;;;;58.40;21.10;;;-1.60;99.90;;;;;;4823875;29;20426;-86
2021/12/14 04:10:50;;;;;;;73.50;23.63;;;-1.60;99.90;;;;;;4823812;29;20424;-88
2021/12/14 04:13:21;;;;;;;58.03;20.73;;;-1.60;99.90;;;;;;4823996;29;20458;-89
2021/12/14 04:15:49;;;;;;;65.18;21.83;;;-1.60;99.90;;;;;;4823824;29;20447;-86
2021/12/14 04:18:18;;;;;;;152.90;23.30;;;-1.60;99.90;;;;;;4823860;29;20923;-87
2021/12/14 04:20:48;;;;;;;73.10;25.73;;;-1.60;99.90;;;;;;4823748;29;20420;-86
2021/12/14 04:23:22;;;;;;;60.77;22.33;;;-1.60;99.90;;;;;;4823794;29;20435;-88
2021/12/14 04:25:53;;;;;;;59.88;21.15;;;-1.60;99.90;;;;;;4823814;29;20507;-86
2021/12/14 04:28:28;;;;;;;72.88;19.65;;;-1.60;99.90;;;;;;4823587;29;20424;-88
2021/12/14 04:30:57;;;;;;;71.80;22.42;;;-1.60;99.90;;;;;;4823982;29;20427;-86
2021/12/14 04:33:30;;;;;;;69.17;25.23;;;-1.60;99.90;;;;;;4823393;29;20467;-87
2021/12/14 04:36:02;;;;;;;60.40;20.73;;;-1.60;99.90;;;;;;4823295;29;20424;-87
2021/12/14 04:38:34;;;;;;;96.50;22.23;;;-1.60;99.90;;;;;;4813431;29;21058;-87
2021/12/14 04:52:22;;;;;;;60.38;19.73;;;-1.50;99.90;;;;;;4823233;29;20479;-86
2021/12/14 04:55:00;;;;;;;57.28;21.88;;;-1.60;99.90;;;;;;4823446;29;20466;-87
2021/12/14 04:57:37;;;;;;;151.15;23.25;;;-1.60;99.90;;;;;;4808097;29;20408;-86
2021/12/14 05:00:33;;;;;;;74.07;21.90;;;-1.60;99.90;;;;;;4822612;29;20435;-86
2021/12/14 05:03:40;;;;;;;74.88;22.67;;;-1.60;99.90;;;;;;4825156;29;20580;-88
2021/12/14 05:06:17;;;;;;;92.05;22.55;;;-1.60;99.90;;;;;;4822408;29;20420;-89
2021/12/14 05:09:23;;;;;;;67.75;19.48;;;-1.60;99.90;;;;;;4837868;29;20878;-87
2021/12/14 05:12:09;;;;;;;86.72;24.70;;;-1.60;99.90;;;;;;4808889;29;20469;-89
2021/12/14 05:14:48;;;;;;;59.80;21.45;;;-1.60;99.90;;;;;;4836409;29;20777;-89
2021/12/14 05:17:18;;;;;;;130.73;25.00;;;-1.50;99.90;;;;;;4837773;29;20611;-87
2021/12/14 05:19:48;;;;;;;66.88;20.70;;;-1.60;99.90;;;;;;4837966;29;20416;-88
2021/12/14 05:22:37;;;;;;;87.10;19.52;;;-1.60;99.90;;;;;;4822999;29;20419;-88
2021/12/14 05:25:24;;;;;;;74.10;22.27;;;-1.60;99.90;;;;;;4807678;29;20420;-86
2021/12/14 05:28:00;;;;;;;66.03;20.00;;;-1.60;99.90;;;;;;4836998;29;20443;-88
2021/12/14 05:30:37;;;;;;;78.13;21.85;;;-1.60;99.90;;;;;;4837201;29;20453;-89
2021/12/14 05:33:16;;;;;;;121.82;21.25;;;-1.60;99.90;;;;;;4837583;29;20415;-88
2021/12/14 05:35:47;;;;;;;77.55;21.85;;;-1.60;99.90;;;;;;4837341;29;20424;-86
2021/12/14 05:38:21;;;;;;;70.68;20.95;;;-1.60;99.90;;;;;;4814394;29;20418;-87
2021/12/14 05:43:30;;;;;;;91.13;22.23;;;-1.60;99.90;;;;;;4822336;29;20424;-87
2021/12/14 05:46:07;;;;;;;66.32;20.00;;;-1.50;99.90;;;;;;4836157;29;20468;-87
2021/12/14 05:48:46;;;;;;;74.22;20.48;;;-1.50;99.90;;;;;;4822350;29;20914;-86
2021/12/14 05:51:15;;;;;;;69.50;22.60;;;-1.50;99.90;;;;;;4836942;29;20424;-86
2021/12/14 05:53:45;;;;;;;65.88;23.35;;;-1.50;99.90;;;;;;4822449;29;20907;-85
2021/12/14 05:56:18;;;;;;;65.60;20.33;;;-1.50;99.90;;;;;;4836721;29;20424;-88
2021/12/14 05:58:47;;;;;;;51.13;19.27;;;-1.50;99.90;;;;;;4822338;29;20416;-86
2021/12/14 06:01:19;;;;;;;64.75;21.33;;;-1.50;99.90;;;;;;4821829;29;20815;-88
2021/12/14 06:04:00;;;;;;;111.00;24.17;;;-1.60;99.90;;;;;;4822068;29;20415;-88
2021/12/14 06:06:38;;;;;;;66.13;22.77;;;-1.60;99.90;;;;;;4807785;29;20419;-87
2021/12/14 06:09:37;;;;;;;128.43;23.65;;;-1.60;99.90;;;;;;4821023;29;20428;-86
2021/12/14 06:12:19;;;;;;;82.57;24.23;;;-1.60;99.90;;;;;;4807696;29;20412;-86
2021/12/14 06:14:55;;;;;;;78.88;26.17;;;-1.60;99.90;;;;;;4807164;29;20412;-87
2021/12/14 06:17:30;;;;;;;97.15;23.85;;;-1.50;99.90;;;;;;4805482;29;20430;-87
2021/12/14 06:20:11;;;;;;;78.03;23.42;;;-1.50;99.90;;;;;;4814404;29;20475;-85
2021/12/14 06:22:41;;;;;;;57.10;23.13;;;-1.50;99.90;;;;;;4818785;29;20406;-86
2021/12/14 06:25:24;;;;;;;150.07;24.42;;;-1.50;99.90;;;;;;4789724;29;20414;-86
2021/12/14 06:27:55;;;;;;;85.57;23.25;;;-1.60;99.90;;;;;;4803737;29;20409;-87
2021/12/14 06:30:30;;;;;;;129.32;27.10;;;-1.60;99.90;;;;;;4817716;29;20833;-87
2021/12/14 06:33:01;;;;;;;87.82;26.52;;;-1.60;99.90;;;;;;4806726;29;20444;-87
2021/12/14 06:35:40;;;;;;;83.30;25.92;;;-1.50;99.90;;;;;;4821590;29;20404;-87
2021/12/14 06:40:55;;;;;;;81.95;26.60;;;-1.60;99.90;;;;;;4836830;29;20523;-85
2021/12/14 06:43:49;;;;;;;97.10;28.45;;;-1.60;99.90;;;;;;4821369;29;20458;-86
2021/12/14 06:46:21;;;;;;;81.73;25.57;;;-1.60;99.90;;;;;;4821724;29;20440;-86
2021/12/14 06:48:56;;;;;;;88.43;29.30;;;-1.60;99.90;;;;;;4821497;29;20408;-87
2021/12/14 06:51:31;;;;;;;67.15;26.40;;;-1.60;99.90;;;;;;4807594;29;20422;-87
2021/12/14 06:54:20;;;;;;;85.55;27.50;;;-1.50;99.90;;;;;;4803321;29;20490;-85
2021/12/14 06:57:04;;;;;;;100.30;28.00;;;-1.50;99.90;;;;;;4803611;29;20422;-84
2021/12/14 06:59:55;;;;;;;91.25;26.33;;;-1.60;99.90;;;;;;4804135;29;20466;-85
2021/12/14 07:02:50;;;;;;;91.45;30.13;;;-1.60;99.90;;;;;;4791217;29;20570;-87
2021/12/14 07:05:33;;;;;;;102.78;29.88;;;-1.50;99.90;;;;;;4821224;29;20991;-86
2021/12/14 07:08:28;;;;;;;92.40;30.15;;;-1.60;99.90;;;;;;4812964;29;20436;-85
2021/12/14 07:10:56;;;;;;;82.65;29.30;;;-1.60;99.90;;;;;;4805616;29;20479;-85
2021/12/14 07:13:36;;;;;;;75.00;28.98;;;-1.60;99.90;;;;;;4805944;29;20888;-86
2021/12/14 07:16:19;;;;;;;85.78;32.17;;;-1.60;99.90;;;;;;4821203;29;20481;-86
2021/12/14 07:18:53;;;;;;;75.88;29.90;;;-1.60;99.90;;;;;;4822360;29;20806;-86
2021/12/14 07:21:53;;;;;;;69.28;28.65;;;-1.60;99.90;;;;;;4836274;29;20456;-86
2021/12/14 07:24:23;;;;;;;72.47;28.92;;;-1.70;99.90;;;;;;4791638;29;20420;-87
2021/12/14 07:27:16;;;;;;;68.70;28.52;;;-1.70;99.90;;;;;;4836158;29;20404;-87
2021/12/14 07:29:44;;;;;;;62.47;28.02;;;-1.70;99.90;;;;;;4822698;29;20472;-87
2021/12/14 07:32:11;;;;;;;69.40;27.83;;;-1.70;99.90;;;;;;4839514;29;20431;-87
2021/12/14 07:34:39;;;;;;;70.03;29.50;;;-1.70;99.90;;;;;;4824030;29;20431;-87
2021/12/14 07:37:06;;;;;;;84.00;31.13;;;-1.70;99.90;;;;;;4835781;29;20424;-87
2021/12/14 07:39:34;;;;;;;71.68;30.23;;;-1.70;99.90;;;;;;4822405;29;20828;-86
2021/12/14 07:42:02;;;;;;;157.80;34.47;;;-1.70;99.90;;;;;;4839200;29;20764;-87
2021/12/14 07:44:53;;;;;;;80.05;30.42;;;-1.60;99.90;;;;;;4836740;29;20796;-87
2021/12/14 07:47:21;;;;;;;83.38;32.95;;;-1.60;99.90;;;;;;4823884;29;20470;-88
2021/12/14 07:49:55;;;;;;;75.60;32.55;;;-1.60;99.90;;;;;;4824192;29;20416;-86
2021/12/14 07:52:28;;;;;;;86.30;33.88;;;-1.60;99.90;;;;;;4838856;29;20416;-87
2021/12/14 07:55:03;;;;;;;93.55;34.17;;;-1.50;99.90;;;;;;4838534;29;20431;-86
2021/12/14 07:57:34;;;;;;;79.63;32.95;;;-1.50;99.90;;;;;;4838986;29;20463;-87
2021/12/14 08:00:21;;;;;;;81.53;31.67;;;-1.60;99.90;;;;;;4838825;29;20523;-87
2021/12/14 08:02:58;;;;;;;83.97;32.17;;;-1.60;99.90;;;;;;4838621;29;20435;-86
2021/12/14 08:05:29;;;;;;;86.78;31.45;;;-1.60;99.90;;;;;;4838756;29;20459;-87
2021/12/14 08:08:53;;;;;;;95.03;34.13;;;-1.60;99.90;;;;;;4838894;29;20500;-87
2021/12/14 08:11:46;;;;;;;76.13;29.80;;;-1.60;99.90;;;;;;4824819;29;20472;-87
2021/12/14 08:14:19;;;;;;;96.30;32.75;;;-1.70;99.90;;;;;;4838749;29;20500;-87
2021/12/14 08:16:49;;;;;;;77.63;29.63;;;-1.70;99.90;;;;;;4838873;29;20523;-87
2021/12/14 08:19:39;;;;;;;90.72;34.08;;;-1.70;99.90;;;;;;4823598;29;20419;-88
2021/12/14 08:22:15;;;;;;;87.55;31.98;;;-1.60;99.90;;;;;;4808574;29;20447;-87
2021/12/14 08:24:49;;;;;;;92.85;33.63;;;-1.70;99.90;;;;;;4823509;29;20473;-87
2021/12/14 08:27:24;;;;;;;74.63;30.80;;;-1.70;99.90;;;;;;4823218;29;20453;-86
2021/12/14 08:29:59;;;;;;;66.72;28.83;;;-1.60;99.90;;;;;;4838725;29;20821;-86
2021/12/14 08:32:32;;;;;;;77.47;31.65;;;-1.60;99.90;;;;;;4838728;29;20508;-87
2021/12/14 08:35:07;;;;;;;85.43;33.08;;;-1.60;99.90;;;;;;4824494;29;20439;-87
2021/12/14 08:37:37;;;;;;;66.20;28.02;;;-1.60;99.90;;;;;;4838757;29;20465;-87
2021/12/14 08:40:16;;;;;;;84.20;32.93;;;-1.60;99.90;;;;;;4837213;29;20416;-87
2021/12/14 08:42:52;;;;;;;73.28;30.02;;;-1.60;99.90;;;;;;4838110;29;20420;-87
2021/12/14 08:45:26;;;;;;;76.45;30.70;;;-1.60;99.90;;;;;;4822985;29;20432;-87
2021/12/14 08:48:09;;;;;;;94.00;33.83;;;-1.60;99.90;;;;;;4838156;29;20407;-87
2021/12/14 08:50:59;;;;;;;79.65;31.15;;;-1.60;99.90;;;;;;4822929;29;20436;-85
2021/12/14 08:53:34;;;;;;;66.63;30.10;;;-1.60;99.90;;;;;;4837827;29;20825;-88
2021/12/14 08:56:06;;;;;;;72.03;29.90;;;-1.60;99.90;;;;;;4837935;29;20469;-87
2021/12/14 08:58:34;;;;;;;66.07;30.70;;;-1.60;99.90;;;;;;4823840;29;20426;-86
2021/12/14 09:01:09;;;;;;;77.00;31.13;;;-1.60;99.90;;;;;;4837757;29;20416;-86
2021/12/14 09:03:44;;;;;;;64.25;29.10;;;-1.60;99.90;;;;;;4837966;29;20450;-86
2021/12/14 09:06:18;;;;;;;80.53;33.08;;;-1.60;99.90;;;;;;4837732;29;20963;-87
2021/12/14 09:08:47;;;;;;;70.18;29.15;;;-1.60;99.90;;;;;;4837976;29;20920;-86
2021/12/14 09:11:21;;;;;;;65.90;29.13;;;-1.60;99.90;;;;;;4822661;29;20506;-87
2021/12/14 09:13:50;;;;;;;69.43;28.83;;;-1.60;99.90;;;;;;4837695;29;20424;-87
2021/12/14 09:16:28;;;;;;;69.63;29.60;;;-1.60;99.90;;;;;;4822511;29;20481;-86
2021/12/14 09:19:02;;;;;;;59.10;27.30;;;-1.60;99.90;;;;;;4822574;29;20506;-83
2021/12/14 09:21:37;;;;;;;63.70;27.13;;;-1.60;99.90;;;;;;4837658;29;20916;-86
2021/12/14 09:24:09;;;;;;;62.93;28.23;;;-1.50;99.90;;;;;;4837811;29;20512;-85
2021/12/14 09:26:41;;;;;;;61.50;27.40;;;-1.60;99.90;;;;;;4822511;29;20431;-86
2021/12/14 09:29:13;;;;;;;62.58;27.45;;;-1.60;99.90;;;;;;4837843;29;20820;-85
2021/12/14 09:31:44;;;;;;;56.10;27.58;;;-1.60;99.90;;;;;;4837328;29;20903;-86
2021/12/14 09:34:13;;;;;;;57.97;27.17;;;-1.50;99.90;;;;;;4837548;29;20780;-86
2021/12/14 09:36:42;;;;;;;58.05;26.65;;;-1.50;99.90;;;;;;4837527;29;20519;-85
2021/12/14 09:39:17;;;;;;;74.22;29.65;;;-1.60;99.90;;;;;;4837368;29;20412;-88
2021/12/14 09:41:50;;;;;;;65.32;28.88;;;-1.50;99.90;;;;;;4807322;29;20477;-86
2021/12/14 09:44:17;;;;;;;59.80;27.13;;;-1.50;99.90;;;;;;4822273;29;20446;-85
2021/12/14 09:46:46;;;;;;;54.42;25.10;;;-1.60;99.90;;;;;;4823424;29;20404;-86
2021/12/14 09:49:14;;;;;;;58.90;26.48;;;-1.60;99.90;;;;;;4822461;29;20841;-87
2021/12/14 09:51:51;;;;;;;55.85;26.15;;;-1.60;99.90;;;;;;4836875;29;20834;-85
2021/12/14 09:54:23;;;;;;;54.47;26.53;;;-1.60;99.90;;;;;;4837380;29;20411;-86
2021/12/14 09:57:01;;;;;;;62.85;27.90;;;-1.60;99.90;;;;;;4837162;29;20415;-87
2021/12/14 09:59:29;;;;;;;55.50;27.33;;;-1.60;99.90;;;;;;4821916;29;20415;-87
2021/12/14 10:02:05;;;;;;;60.30;26.00;;;-1.60;99.90;;;;;;4837042;29;20423;-84
2021/12/14 10:04:41;;;;;;;55.00;26.05;;;-1.60;99.90;;;;;;4837094;29;20915;-86
2021/12/14 10:07:09;;;;;;;56.20;26.02;;;-1.60;99.90;;;;;;4821977;29;20476;-86
2021/12/14 10:09:43;;;;;;;62.20;27.25;;;-1.60;99.90;;;;;;4822062;29;20428;-86
2021/12/14 10:15:17;;;;;;;54.55;25.55;;;-1.60;99.90;;;;;;4823233;29;20810;-87
2021/12/14 10:17:46;;;;;;;55.17;24.95;;;-1.60;99.90;;;;;;4837044;29;20408;-87
2021/12/14 10:20:20;;;;;;;60.17;28.35;;;-1.60;99.90;;;;;;4836682;29;20769;-86
2021/12/14 10:22:51;;;;;;;46.47;24.30;;;-1.60;99.90;;;;;;4821729;29;20420;-85
2021/12/14 10:25:23;;;;;;;55.05;25.83;;;-1.60;99.90;;;;;;4837263;29;20416;-86
2021/12/14 10:27:51;;;;;;;48.37;24.80;;;-1.60;99.90;;;;;;4837262;29;20410;-86
2021/12/14 10:30:24;;;;;;;56.67;26.52;;;-1.50;99.90;;;;;;4821769;29;20903;-86
2021/12/14 10:32:52;;;;;;;51.90;25.33;;;-1.50;99.90;;;;;;4836730;29;20480;-86
2021/12/14 10:35:24;;;;;;;58.67;27.52;;;-1.50;99.90;;;;;;4836873;29;20420;-86
2021/12/14 10:38:13;;;;;;;52.60;24.97;;;-1.50;99.90;;;;;;4821684;29;20484;-86
2021/12/14 10:43:30;;;;;;;59.70;27.85;;;-1.50;99.90;;;;;;4836749;29;20907;-86
2021/12/14 10:46:05;;;;;;;51.88;25.00;;;-1.50;99.90;;;;;;4836652;29;20423;-86
2021/12/14 10:48:37;;;;;;;48.92;25.08;;;-1.50;99.90;;;;;;4821795;29;20465;-86
2021/12/14 10:51:09;;;;;;;50.55;24.83;;;-1.50;99.90;;;;;;4836980;29;20412;-86
2021/12/14 10:53:42;;;;;;;49.30;24.83;;;-1.50;99.90;;;;;;4821671;29;20579;-85
2021/12/14 10:56:35;;;;;;;60.53;27.23;;;-1.50;99.90;;;;;;4836662;29;20420;-86
2021/12/14 10:59:06;;;;;;;53.13;25.55;;;-1.40;99.90;;;;;;4836201;29;20454;-84
2021/12/14 11:01:38;;;;;;;51.75;24.35;;;-1.40;99.90;;;;;;4836665;29;20408;-84
2021/12/14 11:04:12;;;;;;;49.00;25.20;;;-1.40;99.90;;;;;;4838537;29;20468;-85
2021/12/14 11:06:43;;;;;;;52.38;25.13;;;-1.40;99.90;;;;;;4840357;29;20424;-86
2021/12/14 11:09:40;;;;;;;45.60;23.13;;;-1.40;99.90;;;;;;4838810;29;20859;-85
2021/12/14 11:12:25;;;;;;;47.45;23.88;;;-1.40;99.90;;;;;;4825874;29;20447;-86
2021/12/14 11:14:58;;;;;;;54.15;24.65;;;-1.40;99.90;;;;;;4826049;29;20461;-87
2021/12/14 11:20:19;;;;;;;49.38;23.33;;;-1.40;99.90;;;;;;4825762;29;20446;-86
2021/12/14 11:22:55;;;;;;;53.17;23.73;;;-1.40;99.90;;;;;;4824545;29;20416;-86
2021/12/14 11:25:58;;;;;;;50.97;24.50;;;-1.30;99.90;;;;;;4806497;29;20424;-87
2021/12/14 11:28:31;;;;;;;48.97;23.85;;;-1.30;99.90;;;;;;4805972;29;20504;-87
2021/12/14 11:31:08;;;;;;;45.45;23.27;;;-1.30;99.90;;;;;;4808436;29;20429;-86
2021/12/14 11:33:44;;;;;;;46.08;23.45;;;-1.30;99.90;;;;;;4821308;29;20435;-87
2021/12/14 11:36:24;;;;;;;46.78;23.42;;;-1.30;99.90;;;;;;4838021;29;20408;-86
2021/12/14 11:39:18;;;;;;;44.53;20.45;;;-1.30;99.90;;;;;;4823006;29;20952;-87
2021/12/14 11:42:05;;;;;;;48.13;23.42;;;-1.30;99.90;;;;;;4821845;29;20411;-87
2021/12/14 11:44:39;;;;;;;49.88;22.52;;;-1.30;99.90;;;;;;4802010;29;20430;-86
2021/12/14 11:50:21;;;;;;;47.42;22.13;;;-1.20;99.90;;;;;;4821930;29;20503;-87
2021/12/14 11:53:02;;;;;;;41.45;21.23;;;-1.20;99.90;;;;;;4823166;29;20468;-87
2021/12/14 11:55:50;;;;;;;42.83;21.48;;;-1.20;99.90;;;;;;4823972;29;20439;-87
2021/12/14 11:58:40;;;;;;;48.78;22.95;;;-1.20;99.90;;;;;;4823640;29;20412;-87
2021/12/14 12:01:25;;;;;;;47.58;22.55;;;-1.20;99.90;;;;;;4809060;29;20479;-86
2021/12/14 12:04:00;;;;;;;45.83;21.73;;;-1.20;99.90;;;;;;4824896;29;20427;-87
2021/12/14 12:12:03;;;;;;;40.50;19.23;;;-1.20;99.90;;;;;;4824929;29;20408;-87
2021/12/14 12:14:35;;;;;;;39.33;18.42;;;-1.10;99.90;;;;;;4823550;29;20426;-87
2021/12/14 12:17:31;;;;;;;41.38;19.98;;;-1.10;99.90;;;;;;4823765;29;20420;-87
2021/12/14 12:20:11;;;;;;;34.53;18.03;;;-1.10;99.90;;;;;;4823852;29;20403;-87
2021/12/14 12:22:41;;;;;;;40.42;19.35;;;-1.10;99.90;;;;;;4824813;29;20503;-87
2021/12/14 12:25:12;;;;;;;38.85;19.10;;;-1.10;99.90;;;;;;4808591;29;20451;-87
2021/12/14 12:28:04;;;;;;;35.63;18.63;;;-1.10;99.90;;;;;;4823561;29;20412;-88
2021/12/14 12:30:41;;;;;;;37.40;18.02;;;-1.10;99.90;;;;;;4838774;29;20864;-87
2021/12/14 12:33:27;;;;;;;36.08;17.52;;;-1.10;99.90;;;;;;4823698;29;20887;-87
2021/12/14 12:36:13;;;;;;;35.33;16.75;;;-1.10;99.90;;;;;;4838529;29;20464;-88
2021/12/14 12:39:03;;;;;;;32.72;16.33;;;-1.10;99.90;;;;;;4823267;29;20499;-87
2021/12/14 12:41:47;;;;;;;32.22;15.75;;;-1.10;99.90;;;;;;4838625;29;20420;-88
2021/12/14 12:44:20;;;;;;;31.48;15.18;;;-1.10;99.90;;;;;;4838035;29;20821;-87
2021/12/14 12:46:59;;;;;;;29.67;15.75;;;-1.00;99.90;;;;;;4838646;29;20426;-87
2021/12/14 12:49:28;;;;;;;30.15;15.65;;;-1.00;99.90;;;;;;4823237;29;20512;-88
2021/12/14 12:52:06;;;;;;;30.55;15.32;;;-1.00;99.90;;;;;;4838286;29;20404;-87
2021/12/14 12:54:37;;;;;;;35.15;16.25;;;-1.00;99.90;;;;;;4838311;29;20431;-87
2021/12/14 12:57:08;;;;;;;29.40;14.60;;;-1.00;99.90;;;;;;4823327;29;20888;-87
2021/12/14 13:00:10;;;;;;;30.95;14.93;;;-1.00;99.90;;;;;;4822856;29;20424;-87
2021/12/14 13:03:00;;;;;;;26.65;13.50;;;-1.00;99.90;;;;;;4813909;29;20941;-86
2021/12/14 13:05:37;;;;;;;31.85;15.63;;;-1.00;99.90;;;;;;4811446;29;20412;-87
2021/12/14 13:08:28;;;;;;;31.48;14.80;;;-1.00;99.90;;;;;;4820557;29;20519;-86
2021/12/14 13:11:21;;;;;;;31.23;14.00;;;-0.90;99.90;;;;;;4810663;29;20436;-86
2021/12/14 13:13:48;;;;;;;29.50;13.65;;;-1.00;99.90;;;;;;4815706;29;20420;-87
2021/12/14 13:16:27;;;;;;;28.50;13.23;;;-0.90;99.90;;;;;;4822720;29;20945;-87
2021/12/14 13:19:25;;;;;;;27.70;12.88;;;-1.00;99.90;;;;;;4837833;29;20420;-87
2021/12/14 13:22:06;;;;;;;24.50;11.88;;;-0.90;99.90;;;;;;4806361;29;20431;-86
2021/12/14 13:24:37;;;;;;;26.10;13.48;;;-0.90;99.90;;;;;;4822254;29;20911;-87
2021/12/14 13:27:05;;;;;;;27.92;14.23;;;-0.90;99.90;;;;;;4821880;29;20420;-88
2021/12/14 13:29:45;;;;;;;28.95;14.30;;;-0.90;99.90;;;;;;4822399;29;20826;-87
2021/12/14 13:32:24;;;;;;;25.17;12.13;;;-0.90;99.90;;;;;;4804166;29;20435;-86
2021/12/14 13:34:53;;;;;;;24.13;11.23;;;-0.90;99.90;;;;;;4820636;29;20784;-87
2021/12/14 13:37:31;;;;;;;28.05;13.27;;;-0.90;99.90;;;;;;4828972;29;20415;-87
2021/12/14 13:40:01;;;;;;;24.35;12.23;;;-0.80;99.90;;;;;;4811521;29;20439;-87
2021/12/14 13:42:40;;;;;;;24.45;11.90;;;-0.90;99.90;;;;;;4837042;29;20511;-87
2021/12/14 13:45:22;;;;;;;23.77;11.70;;;-0.90;99.90;;;;;;4822288;29;20495;-88
2021/12/14 13:47:51;;;;;;;27.90;12.63;;;-0.80;99.90;;;;;;4822293;29;20468;-88
2021/12/14 13:50:25;;;;;;;28.27;12.70;;;-0.80;99.90;;;;;;4822206;29;20411;-87
2021/12/14 13:52:53;;;;;;;23.58;10.80;;;-0.80;99.90;;;;;;4822311;29;20415;-87
2021/12/14 13:55:37;;;;;;;19.05;9.27;;;-0.80;99.90;;;;;;4822118;29;20837;-86
2021/12/14 13:58:08;;;;;;;20.30;10.00;;;-0.80;99.90;;;;;;4818925;29;20422;-87
2021/12/14 14:00:51;;;;;;;21.67;10.02;;;-0.80;99.90;;;;;;4834026;29;20587;-86